Terminal Aerodrome Forecast
Issued by NWS Wakefield, VA

Home | Current Version | Previous Version | Text Only | Print | Product List | Glossary On
Versions: 1 2 3 4 5 6 7 8 9 10 11 12 13 14 15 16 17 18 19 20 21 22 23 24
609
FTUS41 KAKQ 170332 AAA
TAFECG
TAF AMD
KECG 170332Z 1704/1724 00000KT 1/2SM FG VV002
      TEMPO 1704/1706 3SM BR SCT004
     FM171100 34006KT 4SM BR BKN015
     FM171500 36009KT P6SM -RASN BKN035
     FM171800 01010KT 3SM -SN OVC025
     FM172100 01012KT 1SM -SN BR OVC009=

USA.gov is the U.S. government's official web portal to all federal, state and local government web resources and services.